Flight Track Log - Related Links

Times and Time Zones

All times are in EDT time to prevent confusion due to time zone crossing. See the N700MP flight status page for this flight to view local times or setup timezone preferences in your user account.

Time Position Orientation Groundspeed Altitude Reporting Facility
EDT Latitude Longitude Course Direction KTS MPH feet Rate Location/Type
Mon 07:03:17 AM 42.2914 -83.6008 299° West 227 261 4,300  Level Cleveland Center
Mon 07:03:33 AM 42.2947 -83.6261 280° West 249 287 5,100 2,842 Climbing Cleveland Center
Mon 07:04:33 AM 42.2475 -83.6856 223° Southwest 259 298 7,900 2,950 Climbing Cleveland Center
Mon 07:05:33 AM 42.1731 -83.6567 164° South 194 223 11,000 2,529 Climbing Cleveland Center
Mon 07:06:34 AM 42.0903 -83.6361 170° South 255 293 13,000 2,150 Climbing Cleveland Center
Mon 07:07:00 AM 41.5964 -83.3333 180° South  Level FlightAware Approximate
Mon 07:07:33 AM 42.0125 -83.5792 151° Southeast 291 335 15,300  Level Cleveland Center
Mon 07:08:33 AM 41.9389 -83.5256 152° Southeast 316 364 17,300 1,967 Climbing Cleveland Center
Mon 07:10:33 AM 41.7544 -83.3972 153° Southeast 344 396 21,200 1,923 Climbing Cleveland Center
Mon 07:11:34 AM 41.6642 -83.3406 155° Southeast 354 407 23,100 1,736 Climbing Cleveland Center
Mon 07:12:34 AM 41.5581 -83.3306 176° South 364 419 24,700 1,513 Climbing Cleveland Center
Mon 07:13:33 AM 41.4592 -83.3678 196° South 364 419 26,100 1,350 Climbing Cleveland Center
Mon 07:14:34 AM 41.3617 -83.4272 205° Southwest 370 426 27,400 1,300 Climbing Cleveland Center
Mon 07:15:33 AM 41.2603 -83.4836 203° Southwest 380 437 28,700 1,311 Climbing Cleveland Center
Mon 07:16:33 AM 41.1586 -83.5425 204° Southwest 393 452 30,000 1,180 Climbing Cleveland Center
Mon 07:18:36 AM 40.9478 -83.6650 204° Southwest 417 480 32,300 1,076 Climbing Indianapolis Center
Mon 07:19:37 AM 40.8406 -83.7267 204° Southwest 417 480 33,300 1,033 Climbing Indianapolis Center
Mon 07:20:38 AM 40.7314 -83.7894 204° Southwest 422 486 34,400 927 Climbing Indianapolis Center
Mon 07:21:40 AM 40.6217 -83.8503 203° Southwest 426 490 35,200 780 Climbing Indianapolis Center
Mon 07:22:41 AM 40.5114 -83.9139 204° Southwest 430 495 36,000 787 Climbing Indianapolis Center
Mon 07:23:42 AM 40.4006 -83.9769 203° Southwest 431 496 36,800 689 Climbing Indianapolis Center
Mon 07:24:43 AM 40.2925 -84.0464 206° Southwest 431 496 37,400 537 Climbing Indianapolis Center
Mon 07:25:45 AM 40.1892 -84.1242 210° Southwest 428 493 37,900 293 Climbing Indianapolis Center
Mon 07:26:46 AM 40.0819 -84.2003 209° Southwest 436 502 38,000 49 Climbing Indianapolis Center
Mon 07:27:47 AM 39.9728 -84.2786 209° Southwest 444 511 38,000  Level Indianapolis Center
Mon 07:28:48 AM 39.8436 -84.3717 209° Southwest 451 519 38,000  Level Indianapolis Center
Mon 07:29:50 AM 39.7314 -84.4522 209° Southwest 457 526 38,000  Level Indianapolis Center
Mon 07:30:51 AM 39.6189 -84.5314 208° Southwest 457 526 38,000  Level Indianapolis Center
Mon 07:31:53 AM 39.5053 -84.6114 209° Southwest 459 528 38,000  Level Indianapolis Center
Mon 07:32:54 AM 39.3936 -84.6914 209° Southwest 458 527 38,000  Level Indianapolis Center
Mon 07:33:55 AM 39.2808 -84.7717 209° Southwest 457 526 38,000  Level Indianapolis Center
Mon 07:34:57 AM 39.1678 -84.8506 208° Southwest 459 528 38,000  Level Indianapolis Center
Mon 07:35:58 AM 39.0447 -84.9361 208° Southwest 462 532 38,000  Level Indianapolis Center
Mon 07:37:00 AM 38.9319 -85.0150 209° Southwest 457 526 38,000  Level Indianapolis Center
Mon 07:38:01 AM 38.8189 -85.0939 209° Southwest 458 527 38,000  Level Indianapolis Center
Mon 07:39:03 AM 38.7050 -85.1719 208° Southwest 459 528 38,000  Level Indianapolis Center
Mon 07:40:04 AM 38.5872 -85.2544 209° Southwest 456 525 38,000  Level Indianapolis Center
Mon 07:41:06 AM 38.4742 -85.3317 208° Southwest 457 526 38,000  Level Indianapolis Center
Mon 07:42:07 AM 38.3617 -85.4092 208° Southwest 455 524 38,000  Level Indianapolis Center
Mon 07:43:09 AM 38.2481 -85.4858 208° Southwest 457 526 38,000  Level Indianapolis Center
Mon 07:44:10 AM 38.1339 -85.5639 208° Southwest 463 533 38,000  Level Indianapolis Center
Mon 07:45:12 AM 38.0189 -85.6408 208° Southwest 462 532 38,000  Level Indianapolis Center
Mon 07:46:14 AM 37.9053 -85.7186 208° Southwest 461 531 38,000  Level Indianapolis Center
Mon 07:47:15 AM 37.7908 -85.7942 208° Southwest 461 531 38,000  Level Indianapolis Center
Mon 07:48:17 AM 37.6764 -85.8708 208° Southwest 462 532 38,000  Level Indianapolis Center
Mon 07:49:18 AM 37.5517 -85.9561 208° Southwest 461 531 38,000  Level Indianapolis Center
Mon 07:50:20 AM 37.4353 -86.0325 208° Southwest 464 534 38,000  Level Indianapolis Center
Mon 07:51:21 AM 37.3192 -86.1092 208° Southwest 466 536 38,000  Level Indianapolis Center
Mon 07:52:23 AM 37.2039 -86.1864 208° Southwest 466 536 38,000  Level Indianapolis Center
Mon 07:53:09 AM 37.1017 -86.2581 209° Southwest 465 535 38,000  Level Memphis Center
Mon 07:54:09 AM 36.9872 -86.3289 206° Southwest 465 535 38,000  Level Memphis Center
Mon 07:55:09 AM 36.8750 -86.4044 208° Southwest 460 529 38,000  Level Memphis Center
Mon 07:56:09 AM 36.7586 -86.4775 207° Southwest 465 535 38,000  Level Memphis Center
Mon 07:57:09 AM 36.6442 -86.5503 207° Southwest 460 529 38,000 -50 Level Memphis Center
Mon 07:58:09 AM 36.5297 -86.6253 208° Southwest 460 529 37,900  Descending Memphis Center
Mon 07:59:09 AM 36.4272 -86.6869 206° Southwest 460 529 38,000 50 Climbing Memphis Center
Mon 08:00:09 AM 36.3089 -86.7669 209° Southwest 468 539 38,000  Level Memphis Center
Mon 08:01:09 AM 36.1778 -86.8472 206° Southwest 473 544 38,000  Level Memphis Center
Mon 08:02:09 AM 36.0672 -86.9239 209° Southwest 473 544 38,000  Level Memphis Center
Mon 08:03:09 AM 35.9544 -86.9953 207° Southwest 460 529 38,000  Level Memphis Center
Mon 08:04:09 AM 35.8417 -87.0689 208° Southwest 465 535 38,000  Level Memphis Center
Mon 08:05:09 AM 35.7289 -87.1400 207° Southwest 465 535 38,000  Level Memphis Center
Mon 08:06:09 AM 35.6139 -87.2108 207° Southwest 460 529 38,000  Level Memphis Center
Mon 08:07:09 AM 35.5031 -87.2814 207° Southwest 460 529 38,000  Level Memphis Center
Mon 08:08:10 AM 35.3983 -87.3464 207° Southwest 460 529 38,000  Level Memphis Center
Mon 08:09:09 AM 35.2914 -87.4139 207° Southwest 454 522 38,000  Level Memphis Center
Mon 08:10:09 AM 35.1806 -87.4839 207° Southwest 454 522 38,000  Level Memphis Center
Mon 08:11:09 AM 35.0653 -87.5536 206° Southwest 454 522 38,000  Level Memphis Center
Mon 08:12:09 AM 34.9561 -87.6206 207° Southwest 454 522 38,000  Level Memphis Center
Mon 08:13:09 AM 34.8469 -87.6850 206° Southwest 447 514 38,000  Level Memphis Center
Mon 08:14:09 AM 34.7358 -87.7542 207° Southwest 441 507 38,000  Level Memphis Center
Mon 08:15:09 AM 34.6144 -87.8286 207° Southwest 446 513 38,000  Level Memphis Center
Mon 08:16:09 AM 34.5008 -87.8975 207° Southwest 451 519 38,000  Level Memphis Center
Mon 08:17:09 AM 34.3917 -87.9661 207° Southwest 443 510 38,000  Level Memphis Center
Mon 08:18:09 AM 34.2803 -88.0319 206° Southwest 444 511 38,000  Level Memphis Center
Mon 08:19:09 AM 34.1708 -88.0978 206° Southwest 444 511 38,000 -150 Level Memphis Center
Mon 08:20:09 AM 34.0592 -88.1558 203° Southwest 444 511 37,700 -1,050 Descending Memphis Center
Mon 08:21:09 AM 33.9392 -88.2064 199° South 452 520 35,900 -1,950 Descending Memphis Center
Mon 08:22:09 AM 33.8231 -88.2494 197° South 452 520 33,800 -2,050 Descending Memphis Center
Mon 08:23:09 AM 33.7178 -88.3319 213° Southwest 452 520 31,800 -2,050 Descending Memphis Center
Mon 08:24:09 AM 33.6361 -88.4436 229° Southwest 438 504 29,700 -2,100 Descending Memphis Center
Mon 08:25:09 AM 33.5481 -88.5478 225° Southwest 448 516 27,600 -2,100 Descending Memphis Center
Mon 08:26:09 AM 33.4661 -88.6589 229° Southwest 448 516 25,500 -2,050 Descending Memphis Center
Mon 08:27:09 AM 33.3797 -88.7625 225° Southwest 448 516 23,500 -2,050 Descending Memphis Center
Mon 08:28:09 AM 33.2956 -88.8686 227° Southwest 448 516 21,400 -2,050 Descending Memphis Center
Mon 08:29:09 AM 33.2131 -88.9717 226° Southwest 442 509 19,400 -2,000 Descending Memphis Center
Mon 08:30:09 AM 33.1308 -89.0747 226° Southwest 437 503 17,400 -2,050 Descending Memphis Center
Mon 08:31:09 AM 33.0503 -89.1750 226° Southwest 432 497 15,300 -2,100 Descending Memphis Center
Mon 08:32:09 AM 32.9697 -89.2703 225° Southwest 426 490 13,200 -1,950 Descending Memphis Center
Mon 08:33:09 AM 32.8953 -89.3553 224° Southwest 403 464 11,400 -1,050 Descending Memphis Center
Mon 08:34:09 AM 32.8333 -89.4350 227° Southwest 372 428 11,100 -150 Descending Memphis Center
Mon 08:35:09 AM 32.7775 -89.5025 225° Southwest 328 377 11,100  Level Memphis Center
Mon 08:36:09 AM 32.7217 -89.5694 225° Southwest 295 339 11,100  Level Memphis Center
Mon 08:37:09 AM 32.6678 -89.6367 226° Southwest 290 334 11,100 -50 Level Memphis Center
Mon 08:38:09 AM 32.6053 -89.6939 218° Southwest 290 334 11,000 -750 Descending Memphis Center
Mon 08:39:09 AM 32.5306 -89.7364 206° Southwest 290 334 9,600 -1,350 Descending Memphis Center
Mon 08:40:09 AM 32.4639 -89.7761 207° Southwest 290 334 8,300 -1,500 Descending Memphis Center
Mon 08:41:09 AM 32.3994 -89.8183 209° Southwest 278 320 6,600 -1,800 Descending Memphis Center
Mon 08:42:09 AM 32.3347 -89.8558 206° Southwest 273 314 4,700 -1,750 Descending Memphis Center
Mon 08:43:09 AM 32.2639 -89.8783 195° South 268 308 3,100 -800 Descending Memphis Center
Mon 08:44:09 AM 32.2056 -89.8836 184° South 252 290 3,100 -300 Level Memphis Center
Mon 08:45:09 AM 32.1681 -89.9108 212° Southwest 172 198 2,500 -550 Descending Memphis Center
Mon 08:46:09 AM 32.1494 -89.9622 247° West 165 190 2,000 -200 Descending Memphis Center
Mon 08:47:09 AM 32.1600 -90.0089 285° West 145 167 2,100 50 Climbing Memphis Center
Mon 08:48:09 AM 32.2039 -90.0333 335° Northwest 136 157 2,100 -350 Level Memphis Center
Mon 08:49:09 AM 32.2478 -90.0553 337° Northwest 149 171 1,400 -700 Descending Memphis Center
Mon 08:50:09 AM 32.2853 -90.0697 342° North 154 177 700 -700 Descending Memphis Center

Login

Don't have an account? Register now (free) for customized features, flight alerts, and more!